Time;durP1;ratioP1;P1;durP2;ratioP2;P2;SDS_P1;SDS_P2;PMS_P1;PMS_P2;Temp;Humidity;BMP_temperature;BMP_pressure;BME280_temperature;BME280_humidity;BME280_pressure;Samples;Min_cycle;Max_cycle;Signal;HPM_P1;HPM_P2
2023/03/21 00:01:27;;;;;;;;;;;13.50;80.90;;;13.84;50.20;98925.88;4977016;28;114781;-76
2023/03/21 00:03:54;;;;;;;;;;;13.50;81.00;;;13.84;50.16;98928.66;4950425;28;114631;-76
2023/03/21 00:06:21;;;;;;;;;;;13.50;81.00;;;13.84;50.09;98918.38;4953020;28;123997;-77
2023/03/21 00:08:48;;;;;;;;;;;13.50;81.00;;;13.84;50.28;98925.88;4954312;28;124720;-76
2023/03/21 00:11:14;;;;;;;;;;;13.50;81.20;;;13.83;50.26;98932.56;4956368;28;114390;-77
2023/03/21 00:13:43;;;;;;;;;;;13.50;81.30;;;13.82;50.48;98930.94;4952542;28;113834;-76
2023/03/21 00:16:14;;;;;;;;;;;13.50;81.50;;;13.82;50.72;98926.22;4950498;28;124071;-78
2023/03/21 00:18:45;;;;;;;;;;;13.50;81.80;;;13.82;50.75;98925.41;4950155;28;123692;-77
2023/03/21 00:21:14;;;;;;;;;;;13.50;81.90;;;13.80;50.93;98920.16;4958910;28;113615;-79
2023/03/21 00:23:41;;;;;;;;;;;13.50;82.00;;;13.80;50.81;98920.16;4967663;28;113742;-78
2023/03/21 00:26:08;;;;;;;;;;;13.50;82.10;;;13.79;51.05;98921.31;4960787;28;124583;-78
2023/03/21 00:28:39;;;;;;;;;;;13.50;82.20;;;13.80;50.93;98913.78;4962363;28;123972;-78
2023/03/21 00:31:06;;;;;;;;;;;13.50;82.20;;;13.78;51.06;98911.38;4985077;28;114638;-80
2023/03/21 00:33:33;;;;;;;;;;;13.50;82.20;;;13.77;51.04;98908.91;4968534;28;113514;-79
2023/03/21 00:36:01;;;;;;;;;;;13.50;82.30;;;13.78;50.85;98910.53;4971844;28;124174;-78
2023/03/21 00:38:28;;;;;;;;;;;13.50;82.30;;;13.78;51.08;98905.81;4954556;28;123346;-78
2023/03/21 00:40:54;;;;;;;;;;;13.40;82.30;;;13.77;51.15;98904.16;4972752;28;114243;-79
2023/03/21 00:43:28;;;;;;;;;;;13.50;82.50;;;13.77;51.14;98897.81;4971449;28;112104;-78
2023/03/21 00:45:57;;;;;;;;;;;13.50;82.80;;;13.76;51.17;98890.63;4970579;28;124834;-78
2023/03/21 00:48:24;;;;;;;;;;;13.40;82.50;;;13.76;51.28;98890.63;4983950;28;123928;-78
2023/03/21 00:50:52;;;;;;;;;;;13.40;82.50;;;13.74;51.13;98884.59;4967204;28;114986;-76
2023/03/21 00:53:19;;;;;;;;;;;13.40;82.50;;;13.69;51.12;98880.81;4966612;28;114633;-77
2023/03/21 00:55:46;;;;;;;;;;;13.40;82.50;;;13.67;51.21;98883.13;4986083;28;123101;-79
2023/03/21 00:58:12;;;;;;;;;;;13.40;82.50;;;13.67;51.35;98880.38;4969323;28;123856;-79
2023/03/21 01:00:39;;;;;;;;;;;13.40;82.60;;;13.64;51.18;98878.22;4969026;28;114468;-79
2023/03/21 01:03:08;;;;;;;;;;;13.30;82.50;;;13.63;51.35;98871.06;4969344;28;114411;-82
2023/03/21 01:08:22;;;;;;;;;;;13.30;82.60;;;13.61;51.33;98873.34;4979445;28;124473;-82
2023/03/21 01:10:50;;;;;;;;;;;13.30;82.60;;;13.63;51.19;98878.56;4968455;28;114582;-80
2023/03/21 01:13:19;;;;;;;;;;;13.30;82.70;;;13.62;51.32;98886.09;4967102;28;113692;-81
2023/03/21 01:15:48;;;;;;;;;;;13.30;82.70;;;13.61;51.21;98867.78;4950967;28;124367;-82
2023/03/21 01:18:16;;;;;;;;;;;13.30;82.70;;;13.61;51.17;98873.34;4982331;28;123920;-81
2023/03/21 01:20:43;;;;;;;;;;;13.30;82.70;;;13.62;51.25;98869.44;4973927;28;114273;-80
2023/03/21 01:23:11;;;;;;;;;;;13.30;82.70;;;13.59;51.29;98880.38;4961430;28;113200;-79
2023/03/21 01:25:37;;;;;;;;;;;13.30;82.70;;;13.57;51.31;98877.94;4968637;28;124252;-78
2023/03/21 01:28:04;;;;;;;;;;;13.30;82.70;;;13.57;51.54;98871.56;4968430;28;123996;-78
2023/03/21 01:30:31;;;;;;;;;;;13.30;82.70;;;13.57;51.36;98868.78;4996153;28;113327;-79
2023/03/21 01:32:57;;;;;;;;;;;13.30;82.80;;;13.58;51.41;98867.63;4971385;28;114321;-80
2023/03/21 01:35:24;;;;;;;;;;;13.30;82.90;;;13.58;51.45;98867.63;4967309;28;124329;-81
2023/03/21 01:37:50;;;;;;;;;;;13.30;83.00;;;13.58;51.43;98862.91;4969487;28;124002;-79
2023/03/21 01:40:25;;;;;;;;;;;13.30;83.10;;;13.59;51.53;98864.50;4969919;28;115066;-79
2023/03/21 01:42:51;;;;;;;;;;;13.30;83.10;;;13.59;51.63;98869.25;4964859;28;114489;-78
2023/03/21 01:45:55;;;;;;;;;;;13.30;83.20;;;13.57;51.44;98872.38;4986541;28;124858;-79
2023/03/21 01:48:22;;;;;;;;;;;13.30;83.20;;;13.56;51.56;98862.41;4961487;28;123961;-80
2023/03/21 01:50:50;;;;;;;;;;;13.30;83.20;;;13.56;51.44;98859.63;4945081;28;114196;-80
2023/03/21 01:53:19;;;;;;;;;;;13.30;83.30;;;13.56;51.64;98850.50;4958885;28;113555;-79
2023/03/21 01:55:46;;;;;;;;;;;13.30;83.30;;;13.57;51.56;98857.69;4962941;28;124319;-83
2023/03/21 01:58:17;;;;;;;;;;;13.30;83.30;;;13.56;51.68;98856.84;4964523;28;124043;-81
2023/03/21 02:00:44;;;;;;;;;;;13.30;83.30;;;13.56;51.61;98856.84;4961475;28;114504;-79
2023/03/21 02:03:15;;;;;;;;;;;13.30;83.30;;;13.56;51.59;98848.53;4984793;28;114400;-78
2023/03/21 02:05:50;;;;;;;;;;;13.20;83.20;;;13.56;51.49;98854.06;4960750;28;124488;-78
2023/03/21 02:08:16;;;;;;;;;;;13.30;83.30;;;13.55;51.48;98849.69;4950690;28;123944;-77
2023/03/21 02:10:45;;;;;;;;;;;13.30;83.30;;;13.55;51.83;98851.66;4952017;28;115108;-79
2023/03/21 02:13:12;;;;;;;;;;;13.20;83.20;;;13.55;51.65;98835.81;4967217;28;113620;-78
2023/03/21 02:15:41;;;;;;;;;;;13.20;83.20;;;13.54;51.31;98845.28;4948352;28;124817;-77
2023/03/21 02:18:25;;;;;;;;;;;13.20;83.20;;;13.53;51.35;98838.09;4952929;28;124117;-77
2023/03/21 02:20:53;;;;;;;;;;;13.20;83.20;;;13.52;51.49;98842.03;4950166;28;114258;-79
2023/03/21 02:23:32;;;;;;;;;;;13.20;83.20;;;13.51;51.59;98845.94;4949685;28;113663;-77
2023/03/21 02:26:03;;;;;;;;;;;13.20;83.20;;;13.50;51.50;98838.75;4973779;28;126683;-80
2023/03/21 02:28:42;;;;;;;;;;;13.20;83.30;;;13.49;51.44;98842.69;4972782;28;123494;-80
2023/03/21 02:31:33;;;;;;;;;;;13.20;83.30;;;13.48;51.41;98838.25;4964872;28;115199;-84
2023/03/21 02:34:15;;;;;;;;;;;13.20;83.30;;;13.47;51.63;98831.09;4969526;28;114768;-85
2023/03/21 02:37:27;;;;;;;;;;;13.20;83.30;;;13.45;51.51;98827.81;4962797;28;124426;-82
2023/03/21 02:39:55;;;;;;;;;;;13.20;83.30;;;13.44;51.75;98828.97;4954382;28;124528;-83
2023/03/21 02:42:38;;;;;;;;;;;13.10;83.30;;;13.43;51.61;98833.72;4999928;28;114362;-84
2023/03/21 02:45:12;;;;;;;;;;;13.10;83.30;;;13.43;51.57;98832.88;4982647;28;113567;-83
2023/03/21 02:47:46;;;;;;;;;;;13.10;83.30;;;13.42;51.61;98822.94;4994818;28;124357;-84
2023/03/21 02:50:18;;;;;;;;;;;13.10;83.40;;;13.41;51.68;98819.34;4989542;28;123678;-83
2023/03/21 02:52:46;;;;;;;;;;;13.10;83.40;;;13.39;51.67;98818.88;5002740;28;114757;-80
2023/03/21 02:55:17;;;;;;;;;;;13.10;83.40;;;13.40;51.78;98823.25;4972684;28;113550;-82
2023/03/21 02:57:46;;;;;;;;;;;13.10;83.50;;;13.41;51.83;98819.34;5000193;28;124856;-83
2023/03/21 03:00:16;;;;;;;;;;;13.10;83.60;;;13.40;51.79;98822.44;5005122;28;125886;-81
2023/03/21 03:02:43;;;;;;;;;;;13.10;83.60;;;13.40;51.93;98828.81;4999307;28;114110;-78
2023/03/21 03:05:15;;;;;;;;;;;13.10;83.70;;;13.40;51.98;98826.03;4982963;28;112707;-80
2023/03/21 03:08:13;;;;;;;;;;;13.10;83.70;;;13.40;51.99;98819.69;4970915;28;124198;-81
2023/03/21 03:11:11;;;;;;;;;;;13.10;83.80;;;13.36;52.03;98816.75;4970082;28;124001;-79
2023/03/21 03:14:02;;;;;;;;;;;13.10;83.90;;;13.35;51.86;98822.63;4976992;28;114429;-83
2023/03/21 03:17:06;;;;;;;;;;;13.10;83.90;;;13.31;52.10;98818.91;4971523;28;113898;-80
2023/03/21 03:19:35;;;;;;;;;;;13.00;83.80;;;13.26;52.08;98817.91;4970801;28;124338;-81
2023/03/21 03:22:15;;;;;;;;;;;13.00;83.80;;;13.26;52.06;98823.47;4991751;28;123834;-80
2023/03/21 03:24:46;;;;;;;;;;;13.00;83.80;;;13.28;52.24;98825.09;4979173;28;116060;-79
2023/03/21 03:27:16;;;;;;;;;;;13.00;83.80;;;13.28;52.22;98820.38;4972768;28;117410;-81
2023/03/21 03:29:45;;;;;;;;;;;13.00;83.90;;;13.28;52.21;98819.56;4969047;28;124026;-82
2023/03/21 03:32:24;;;;;;;;;;;13.00;83.90;;;13.28;52.24;98819.56;4969392;28;123773;-83
2023/03/21 03:34:55;;;;;;;;;;;13.00;84.00;;;13.28;52.24;98819.56;4969002;28;115415;-81
2023/03/21 03:37:25;;;;;;;;;;;13.00;84.10;;;13.29;52.46;98810.06;4970723;28;114360;-79
2023/03/21 03:39:57;;;;;;;;;;;13.00;84.10;;;13.29;52.31;98815.63;4967596;28;124767;-80
2023/03/21 03:42:29;;;;;;;;;;;13.00;84.20;;;13.28;52.46;98809.28;4969588;28;124729;-79
2023/03/21 03:44:56;;;;;;;;;;;13.00;84.20;;;13.27;52.50;98804.84;4970720;28;114577;-79
2023/03/21 03:47:30;;;;;;;;;;;13.00;84.30;;;13.29;52.31;98807.31;5002445;28;113642;-82
2023/03/21 03:50:09;;;;;;;;;;;13.00;84.20;;;13.29;52.13;98810.88;4968323;28;124263;-80
2023/03/21 03:52:39;;;;;;;;;;;13.00;84.30;;;13.29;52.21;98808.13;4972148;28;123637;-78
2023/03/21 03:55:06;;;;;;;;;;;13.00;84.20;;;13.26;52.16;98797.69;5001596;28;114857;-79
2023/03/21 03:57:34;;;;;;;;;;;13.00;84.10;;;13.23;52.27;98793.56;4970755;28;113570;-79
2023/03/21 04:00:00;;;;;;;;;;;13.00;84.10;;;13.22;52.19;98800.28;4959113;28;124451;-79
2023/03/21 04:02:28;;;;;;;;;;;12.90;84.00;;;13.23;52.42;98801.91;4987670;28;124981;-79
2023/03/21 04:04:56;;;;;;;;;;;12.90;84.10;;;13.22;52.31;98788.38;4977990;28;114324;-79
2023/03/21 04:07:23;;;;;;;;;;;12.90;84.10;;;13.21;52.27;98781.97;4974212;28;114011;-80
2023/03/21 04:09:50;;;;;;;;;;;12.90;84.20;;;13.20;52.47;98797.00;4969873;28;124832;-79
2023/03/21 04:12:17;;;;;;;;;;;12.90;84.30;;;13.20;52.46;98797.00;4957233;28;123708;-77
2023/03/21 04:14:43;;;;;;;;;;;12.90;84.40;;;13.20;52.59;98794.25;4958719;28;119675;-78
2023/03/21 04:17:12;;;;;;;;;;;12.90;84.40;;;13.19;52.51;98795.41;4971626;28;114687;-78
2023/03/21 04:19:38;;;;;;;;;;;12.90;84.40;;;13.19;52.56;98794.56;4974129;28;123128;-78
2023/03/21 04:22:05;;;;;;;;;;;12.90;84.40;;;13.18;52.44;98792.94;4962726;28;123767;-78
2023/03/21 04:24:32;;;;;;;;;;;12.90;84.40;;;13.17;52.33;98792.13;4956749;28;114492;-78
2023/03/21 04:26:59;;;;;;;;;;;12.90;84.40;;;13.15;52.43;98783.31;4965820;28;114316;-79
2023/03/21 04:29:28;;;;;;;;;;;12.80;84.40;;;13.15;52.41;98793.59;4961036;28;124471;-80
2023/03/21 04:31:55;;;;;;;;;;;12.80;84.30;;;13.15;52.39;98790.81;4959786;28;125194;-80
2023/03/21 04:34:22;;;;;;;;;;;12.80;84.30;;;13.14;52.51;98795.56;4965861;28;115243;-78
2023/03/21 04:36:49;;;;;;;;;;;12.80;84.30;;;13.13;52.24;98795.88;4972752;28;113729;-78
2023/03/21 04:39:16;;;;;;;;;;;12.80;84.30;;;13.10;52.25;98791.81;4962666;28;124367;-77
2023/03/21 04:41:44;;;;;;;;;;;12.80;84.30;;;13.10;52.29;98794.56;4993114;28;123886;-77
2023/03/21 04:44:12;;;;;;;;;;;12.80;84.30;;;13.08;52.52;98794.09;5001429;28;114794;-77
2023/03/21 04:46:39;;;;;;;;;;;12.80;84.40;;;13.05;52.48;98789.19;4976291;28;113544;-77
2023/03/21 04:49:05;;;;;;;;;;;12.80;84.40;;;13.03;52.59;98788.75;4969777;28;124225;-79
2023/03/21 04:51:33;;;;;;;;;;;12.70;84.40;;;13.01;52.80;98789.06;4969407;28;124095;-79
2023/03/21 04:53:59;;;;;;;;;;;12.70;84.50;;;12.99;52.70;98790.53;4971610;28;115195;-76
2023/03/21 04:56:46;;;;;;;;;;;12.70;84.60;;;12.97;53.04;98790.03;4972881;28;113809;-79
2023/03/21 04:59:14;;;;;;;;;;;12.70;84.70;;;12.94;52.83;98793.47;4969427;28;124060;-79
2023/03/21 05:01:42;;;;;;;;;;;12.70;84.90;;;12.92;53.02;98795.75;4966680;28;123971;-78
2023/03/21 05:04:09;;;;;;;;;;;12.60;84.90;;;12.91;53.34;98794.94;4946841;28;115281;-77
2023/03/21 05:06:35;;;;;;;;;;;12.60;85.10;;;12.90;53.36;98787.78;4947282;28;113865;-78
2023/03/21 05:09:05;;;;;;;;;;;12.60;85.20;;;12.89;53.44;98790.84;4946963;28;124534;-78
2023/03/21 05:11:36;;;;;;;;;;;12.60;85.30;;;12.89;53.41;98786.13;4969502;28;123775;-79
2023/03/21 05:14:03;;;;;;;;;;;12.60;85.40;;;12.87;53.65;98787.59;4951104;28;114641;-79
2023/03/21 05:16:30;;;;;;;;;;;12.60;85.50;;;12.85;53.42;98787.13;4968146;28;113422;-78
2023/03/21 05:18:57;;;;;;;;;;;12.60;85.60;;;12.85;53.54;98798.22;4948583;28;124310;-78
2023/03/21 05:21:28;;;;;;;;;;;12.60;85.70;;;12.82;53.79;98800.50;4935206;28;123464;-81
2023/03/21 05:23:57;;;;;;;;;;;12.50;85.60;;;12.79;53.67;98795.63;4944580;28;114402;-76
2023/03/21 05:26:24;;;;;;;;;;;12.50;85.70;;;12.77;53.74;98795.13;4967189;28;115934;-77
2023/03/21 05:28:50;;;;;;;;;;;12.50;85.70;;;12.77;53.92;98803.44;4948978;28;124398;-79
2023/03/21 05:31:17;;;;;;;;;;;12.50;85.70;;;12.74;53.67;98795.78;4959237;28;124581;-79
2023/03/21 05:33:45;;;;;;;;;;;12.50;85.70;;;12.73;53.56;98794.13;4966645;28;114664;-78
2023/03/21 05:36:12;;;;;;;;;;;12.40;85.60;;;12.73;53.56;98804.41;4964104;28;113029;-79
2023/03/21 05:38:44;;;;;;;;;;;12.40;85.60;;;12.71;53.49;98799.19;4949100;28;124063;-77
2023/03/21 05:41:13;;;;;;;;;;;12.40;85.60;;;12.71;53.36;98801.97;4978492;28;122628;-77
2023/03/21 05:43:40;;;;;;;;;;;12.40;85.60;;;12.71;53.61;98807.53;4956806;28;114494;-77
2023/03/21 05:46:07;;;;;;;;;;;12.40;85.60;;;12.71;53.37;98801.97;4969156;28;114242;-77
2023/03/21 05:48:34;;;;;;;;;;;12.40;85.60;;;12.70;53.55;98805.88;4968598;28;124359;-80
2023/03/21 05:51:02;;;;;;;;;;;12.40;85.60;;;12.67;53.40;98806.53;4967900;28;124018;-77
2023/03/21 05:53:28;;;;;;;;;;;12.40;85.40;;;12.66;53.35;98806.88;4963591;28;115576;-79
2023/03/21 05:55:54;;;;;;;;;;;12.40;85.20;;;12.60;53.13;98803.44;4980901;28;113874;-78
2023/03/21 05:58:20;;;;;;;;;;;12.40;85.00;;;12.55;52.83;98809.16;4970604;28;122925;-76
2023/03/21 06:00:47;;;;;;;;;;;12.30;84.70;;;12.50;52.89;98806.53;4955824;28;125387;-76
2023/03/21 06:03:13;;;;;;;;;;;12.30;84.60;;;12.50;53.08;98810.13;4963692;28;114327;-78
2023/03/21 06:05:40;;;;;;;;;;;12.30;84.70;;;12.51;53.13;98810.94;4960392;28;113608;-77
2023/03/21 06:08:06;;;;;;;;;;;12.30;84.70;;;12.51;52.72;98811.75;4955370;28;124202;-77
2023/03/21 06:10:32;;;;;;;;;;;12.30;84.70;;;12.51;53.00;98810.94;4956954;28;124322;-78
2023/03/21 06:12:59;;;;;;;;;;;12.20;84.50;;;12.50;52.77;98814.84;4967727;28;114427;-77
2023/03/21 06:15:25;;;;;;;;;;;12.20;84.50;;;12.50;52.82;98806.53;4976602;28;113886;-77
2023/03/21 06:17:52;;;;;;;;;;;12.20;84.40;;;12.51;52.69;98808.16;4954320;28;124530;-78
2023/03/21 06:20:18;;;;;;;;;;;12.20;84.40;;;12.52;52.91;98809.78;4961085;28;123161;-78
2023/03/21 06:22:45;;;;;;;;;;;12.20;84.50;;;12.54;53.27;98810.28;4955272;28;114499;-76
2023/03/21 06:25:11;;;;;;;;;;;12.20;85.20;;;12.53;52.94;98814.19;4989628;28;113301;-77
2023/03/21 06:27:37;;;;;;;;;;;12.20;85.00;;;12.54;53.25;98818.59;4956539;28;126018;-77
2023/03/21 06:30:05;;;;;;;;;;;12.20;85.20;;;12.56;53.42;98810.78;4965297;28;124238;-75
2023/03/21 06:32:31;;;;;;;;;;;12.20;85.20;;;12.63;54.21;98822.19;4954877;28;115054;-80
2023/03/21 06:34:58;;;;;;;;;;;12.30;86.20;;;12.69;54.20;98809.00;4951835;28;113991;-75
2023/03/21 06:37:25;;;;;;;;;;;12.30;86.80;;;12.73;54.19;98807.97;4962988;28;124384;-79
2023/03/21 06:39:52;;;;;;;;;;;12.30;86.80;;;12.79;53.88;98803.94;4980004;28;123049;-78
2023/03/21 06:42:18;;;;;;;;;;;12.40;86.80;;;12.82;54.28;98803.28;4964994;28;115515;-77
2023/03/21 06:44:44;;;;;;;;;;;12.40;87.10;;;12.89;53.88;98804.72;4968132;28;114683;-75
2023/03/21 06:47:11;;;;;;;;;;;12.40;86.90;;;12.89;53.38;98796.41;4967739;28;124368;-76
2023/03/21 06:49:37;;;;;;;;;;;12.40;86.30;;;12.87;52.81;98804.22;4967386;28;124105;-76
2023/03/21 06:52:03;;;;;;;;;;;12.40;85.40;;;12.80;52.50;98805.53;4968494;28;114503;-76
2023/03/21 06:54:30;;;;;;;;;;;12.50;84.90;;;12.73;52.21;98796.91;4969280;28;113534;-77
2023/03/21 06:56:56;;;;;;;;;;;12.40;84.30;;;12.69;52.30;98804.25;4969875;28;124131;-77
2023/03/21 06:59:22;;;;;;;;;;;12.40;84.20;;;12.67;52.28;98797.41;4968087;28;124324;-79
2023/03/21 07:01:49;;;;;;;;;;;12.40;84.00;;;12.66;52.02;98802.13;4985920;28;113582;-76
2023/03/21 07:04:15;;;;;;;;;;;12.40;83.90;;;12.64;52.04;98793.31;4967955;28;113803;-77
2023/03/21 07:06:41;;;;;;;;;;;12.40;83.70;;;12.63;51.73;98800.03;4965232;28;124186;-75
2023/03/21 07:09:08;;;;;;;;;;;12.40;83.60;;;12.66;51.62;98804.91;4981233;28;122962;-76
2023/03/21 07:11:35;;;;;;;;;;;12.40;83.50;;;12.67;51.51;98795.44;4967274;28;114719;-80
2023/03/21 07:14:02;;;;;;;;;;;12.40;83.30;;;12.71;51.40;98784.53;4970926;28;113729;-76
2023/03/21 07:16:29;;;;;;;;;;;12.40;83.30;;;12.78;51.48;98790.38;4966725;28;124069;-77
2023/03/21 07:18:55;;;;;;;;;;;12.40;83.30;;;12.85;51.62;98792.66;4992683;28;123948;-68
2023/03/21 07:21:22;;;;;;;;;;;12.50;83.50;;;12.95;51.48;98795.09;4967759;28;115736;-69
2023/03/21 07:23:49;;;;;;;;;;;12.50;83.60;;;13.02;52.15;98787.09;4961859;28;114103;-69
2023/03/21 07:26:17;;;;;;;;;;;12.60;84.40;;;13.16;52.62;98786.91;4960004;28;124122;-68
2023/03/21 07:28:44;;;;;;;;;;;12.70;85.00;;;13.27;51.80;98790.97;4970220;28;123698;-69
2023/03/21 07:31:12;;;;;;;;;;;12.70;84.70;;;13.31;51.46;98780.84;4965744;28;115533;-69
2023/03/21 07:33:39;;;;;;;;;;;12.80;84.30;;;13.36;51.42;98782.66;4962178;28;114670;-69
2023/03/21 07:36:10;;;;;;;;;;;12.90;84.20;;;13.42;51.54;98786.88;4970363;28;124997;-68
2023/03/21 07:38:36;;;;;;;;;;;12.90;84.30;;;13.50;51.80;98787.97;4996853;28;124248;-69
2023/03/21 07:41:03;;;;;;;;;;;13.00;84.70;;;13.59;51.48;98788.75;4968571;28;114588;-68
2023/03/21 07:43:29;;;;;;;;;;;13.10;84.60;;;13.76;52.05;98782.34;4970750;28;113753;-68
2023/03/21 07:45:57;;;;;;;;;;;13.20;85.40;;;13.97;51.30;98791.53;4969712;28;124978;-68
2023/03/21 07:48:23;;;;;;;;;;;13.30;85.10;;;14.08;50.35;98787.22;4969134;28;124671;-68
2023/03/21 07:50:50;;;;;;;;;;;13.40;84.20;;;14.20;50.53;98791.22;4968854;28;114546;-67
2023/03/21 07:53:16;;;;;;;;;;;13.50;84.10;;;14.34;50.17;98783.44;4970937;28;113677;-67
2023/03/21 07:55:42;;;;;;;;;;;13.60;84.00;;;14.48;49.66;98780.38;4977649;28;125013;-69
2023/03/21 07:58:09;;;;;;;;;;;13.70;83.70;;;14.64;50.20;98788.97;4968397;28;123926;-68
2023/03/21 08:00:35;;;;;;;;;;;13.90;84.30;;;14.77;49.48;98788.69;4968801;28;114662;-69
2023/03/21 08:03:01;;;;;;;;;;;14.00;83.80;;;14.84;49.41;98788.16;4970868;28;114201;-68
2023/03/21 08:05:36;;;;;;;;;;;14.10;83.60;;;14.94;49.62;98790.50;4969965;28;124026;-68
2023/03/21 08:08:03;;;;;;;;;;;14.20;83.90;;;15.06;49.31;98786.13;4970563;28;123831;-68
2023/03/21 08:10:30;;;;;;;;;;;14.30;83.70;;;15.17;49.24;98785.34;4971130;28;114662;-69
2023/03/21 08:12:56;;;;;;;;;;;14.40;83.40;;;15.26;48.42;98776.94;4972429;28;113663;-67
2023/03/21 08:15:23;;;;;;;;;;;14.50;83.00;;;15.34;48.83;98775.19;4951431;28;123822;-73
2023/03/21 08:17:52;;;;;;;;;;;14.60;83.10;;;15.44;48.40;98777.53;4969582;28;124603;-74
2023/03/21 08:20:20;;;;;;;;;;;14.70;82.80;;;15.50;47.68;98772.56;4970256;28;114395;-77
2023/03/21 08:22:48;;;;;;;;;;;14.70;81.80;;;15.52;47.42;98773.84;4970131;28;114755;-76
2023/03/21 08:25:16;;;;;;;;;;;14.80;81.40;;;15.54;47.02;98774.31;4969801;28;124448;-77
2023/03/21 08:27:43;;;;;;;;;;;14.90;80.60;;;15.53;46.15;98774.63;4992464;28;123898;-75
2023/03/21 08:30:11;;;;;;;;;;;14.90;79.40;;;15.49;46.38;98768.16;4966229;28;115072;-76
2023/03/21 08:32:38;;;;;;;;;;;14.90;79.50;;;15.48;47.03;98770.13;4968418;28;114144;-76
2023/03/21 08:35:10;;;;;;;;;;;14.90;80.00;;;15.56;47.33;98771.19;4997736;28;124241;-76
2023/03/21 08:37:37;;;;;;;;;;;15.00;80.50;;;15.62;46.80;98764.22;4967520;28;123983;-76
2023/03/21 08:40:08;;;;;;;;;;;15.10;80.00;;;15.67;46.55;98766.78;4964941;28;114591;-74
2023/03/21 08:42:34;;;;;;;;;;;15.10;79.80;;;15.71;46.91;98759.38;5003024;28;114028;-79
2023/03/21 08:45:00;;;;;;;;;;;15.20;79.80;;;15.73;46.11;98762.63;4968341;28;124541;-74
2023/03/21 08:47:27;;;;;;;;;;;15.20;79.10;;;15.73;45.95;98753.47;4967081;28;124016;-76
2023/03/21 08:49:53;;;;;;;;;;;15.20;78.90;;;15.74;45.49;98743.94;4961615;28;114562;-78
2023/03/21 08:52:19;;;;;;;;;;;15.30;78.20;;;15.75;44.83;98751.97;4972233;28;114000;-75
2023/03/21 08:54:47;;;;;;;;;;;15.30;77.00;;;15.75;44.31;98751.97;4969987;28;125248;-74
2023/03/21 08:57:13;;;;;;;;;;;15.30;76.00;;;15.74;43.60;98744.75;4968597;28;124077;-75
2023/03/21 08:59:40;;;;;;;;;;;15.30;75.10;;;15.74;43.55;98749.50;4967826;28;114261;-74
2023/03/21 09:02:06;;;;;;;;;;;15.30;74.70;;;15.74;43.19;98738.38;4969775;28;113785;-76
2023/03/21 09:04:33;;;;;;;;;;;15.40;74.00;;;15.77;42.86;98735.72;4972229;28;124597;-75
2023/03/21 09:07:04;;;;;;;;;;;15.40;73.60;;;15.80;42.01;98737.81;4987257;28;123603;-77
2023/03/21 09:09:30;;;;;;;;;;;15.40;72.70;;;15.83;41.99;98736.28;4968790;28;114833;-75
2023/03/21 09:11:57;;;;;;;;;;;15.40;72.20;;;15.82;41.59;98734.66;4984192;28;114875;-75
2023/03/21 09:14:23;;;;;;;;;;;15.40;71.60;;;15.82;40.97;98741.03;4984051;28;124389;-79
2023/03/21 09:16:50;;;;;;;;;;;15.40;70.80;;;15.84;40.06;98735.13;4986837;28;123004;-77
2023/03/21 09:19:16;;;;;;;;;;;15.40;68.70;;;15.82;39.39;98741.03;4978206;28;114559;-75
2023/03/21 09:21:43;;;;;;;;;;;15.50;67.60;;;15.83;39.47;98739.09;4968296;28;114116;-76
2023/03/21 09:24:11;;;;;;;;;;;15.50;67.90;;;15.88;39.49;98747.22;4983565;28;124309;-78
2023/03/21 09:26:38;;;;;;;;;;;15.50;67.80;;;15.93;38.88;98746.13;4968604;28;124034;-76
2023/03/21 09:29:04;;;;;;;;;;;15.50;66.60;;;15.94;38.97;98748.59;4987405;28;114041;-78
2023/03/21 09:31:31;;;;;;;;;;;15.50;66.50;;;15.93;38.80;98740.56;4970759;28;112944;-76
2023/03/21 09:33:58;;;;;;;;;;;15.50;66.40;;;15.93;38.99;98746.13;4968055;28;124011;-76
2023/03/21 09:36:26;;;;;;;;;;;15.60;66.70;;;15.96;39.26;98737.06;4967025;28;126085;-76
2023/03/21 09:38:53;;;;;;;;;;;15.60;67.10;;;16.02;39.33;98735.69;4964445;28;114751;-76
2023/03/21 09:41:58;;;;;;;;;;;15.60;66.90;;;16.08;39.27;98728.72;5001165;28;114476;-76
2023/03/21 09:44:24;;;;;;;;;;;15.70;67.20;;;16.14;39.03;98735.66;4986886;28;123757;-75
2023/03/21 09:47:12;;;;;;;;;;;15.70;66.30;;;16.19;38.72;98734.63;4967923;28;124028;-76
2023/03/21 09:49:50;;;;;;;;;;;15.80;66.00;;;16.25;38.48;98722.84;4971456;28;115353;-76
2023/03/21 09:52:22;;;;;;;;;;;15.80;66.30;;;16.33;38.62;98727.50;4970766;28;113550;-75
2023/03/21 09:54:49;;;;;;;;;;;15.90;65.90;;;16.39;38.21;98730.03;4969284;28;124985;-76
2023/03/21 09:57:24;;;;;;;;;;;15.90;65.00;;;16.44;37.94;98722.25;4967575;28;124346;-75
2023/03/21 09:59:52;;;;;;;;;;;16.00;65.20;;;16.49;37.55;98719.19;4966727;28;115279;-75
2023/03/21 10:02:36;;;;;;;;;;;16.00;64.40;;;16.52;37.53;98718.50;4967369;28;114660;-74
2023/03/21 10:05:10;;;;;;;;;;;16.10;64.20;;;16.59;37.71;98715.09;4991664;28;124679;-75
2023/03/21 10:07:43;;;;;;;;;;;16.20;64.60;;;16.69;37.36;98709.00;4963780;28;124075;-74
2023/03/21 10:10:17;;;;;;;;;;;16.20;64.30;;;16.75;37.08;98704.00;4962750;28;115093;-75
2023/03/21 10:12:44;;;;;;;;;;;16.30;63.90;;;16.78;36.82;98704.09;4969065;28;113833;-75
2023/03/21 10:15:16;;;;;;;;;;;16.30;63.40;;;16.82;37.08;98693.06;4968392;28;125052;-75
2023/03/21 10:18:04;;;;;;;;;;;16.30;63.60;;;16.87;36.94;98689.19;4967755;28;123575;-75
2023/03/21 10:20:33;;;;;;;;;;;16.40;63.50;;;16.90;37.00;98694.88;4969786;28;114761;-73
2023/03/21 10:23:03;;;;;;;;;;;16.40;63.20;;;16.91;37.13;98684.53;4967246;28;115864;-76
2023/03/21 10:25:33;;;;;;;;;;;16.40;63.40;;;16.96;37.13;98687.06;4998126;28;124099;-77
2023/03/21 10:28:00;;;;;;;;;;;16.40;63.40;;;17.04;37.57;98680.50;4982796;28;123859;-77
2023/03/21 10:30:29;;;;;;;;;;;16.50;64.00;;;17.14;37.51;98682.75;4964097;28;114362;-74
2023/03/21 10:33:01;;;;;;;;;;;16.70;64.10;;;17.23;37.38;98686.19;4995781;28;112814;-75
2023/03/21 10:35:27;;;;;;;;;;;16.70;63.90;;;17.33;37.33;98672.84;4984480;28;123409;-75
2023/03/21 10:37:54;;;;;;;;;;;16.80;63.90;;;17.40;37.40;98668.25;4967093;28;124582;-75
2023/03/21 10:40:20;;;;;;;;;;;16.90;64.00;;;17.50;37.19;98663.28;4967858;28;115127;-75
2023/03/21 10:42:46;;;;;;;;;;;16.90;64.00;;;17.57;37.20;98655.91;4986183;28;114240;-75
2023/03/21 10:45:18;;;;;;;;;;;17.00;63.70;;;17.61;37.16;98661.56;4970393;28;124079;-75
2023/03/21 10:47:49;;;;;;;;;;;17.00;63.60;;;17.65;37.18;98666.06;4997406;28;123919;-75
2023/03/21 10:50:19;;;;;;;;;;;17.10;63.80;;;17.72;37.24;98664.59;4974344;28;116040;-76
2023/03/21 10:52:59;;;;;;;;;;;17.20;63.80;;;17.79;37.32;98662.81;4970240;28;114818;-76
2023/03/21 10:55:28;;;;;;;;;;;17.30;64.10;;;17.90;37.22;98667.84;4970177;28;124298;-76
2023/03/21 10:58:07;;;;;;;;;;;17.40;64.10;;;17.98;36.70;98670.44;4985248;28;124232;-75
2023/03/21 11:00:36;;;;;;;;;;;17.50;63.30;;;18.06;36.48;98668.63;4968893;28;113587;-76
2023/03/21 11:03:03;;;;;;;;;;;17.50;62.90;;;18.10;36.01;98672.28;4971025;28;113829;-76
2023/03/21 11:05:39;;;;;;;;;;;17.60;62.20;;;18.13;36.05;98665.97;4973421;28;124102;-76
2023/03/21 11:08:10;;;;;;;;;;;17.60;62.20;;;18.15;35.79;98663.63;5002468;28;124042;-76
2023/03/21 11:11:00;;;;;;;;;;;17.70;61.70;;;18.16;35.33;98653.22;5000856;28;114218;-76
2023/03/21 11:13:40;;;;;;;;;;;17.70;60.80;;;18.15;35.56;98654.41;4993704;28;113889;-76
2023/03/21 11:16:11;;;;;;;;;;;17.80;60.90;;;18.20;35.63;98659.72;4964301;28;124459;-74
2023/03/21 11:18:42;;;;;;;;;;;17.80;61.10;;;18.25;35.28;98651.03;4972536;28;123987;-76
2023/03/21 11:21:13;;;;;;;;;;;17.80;60.40;;;18.30;35.06;98650.75;4971712;28;114705;-74
2023/03/21 11:23:48;;;;;;;;;;;17.90;60.70;;;18.38;35.44;98655.31;4977132;28;113816;-74